Time;durP1;ratioP1;P1;durP2;ratioP2;P2;SDS_P1;SDS_P2;PMS_P1;PMS_P2;Temp;Humidity;BMP_temperature;BMP_pressure;BME280_temperature;BME280_humidity;BME280_pressure;Samples;Min_cycle;Max_cycle;Signal;HPM_P1;HPM_P2
2023/09/04 00:00:21;;;;;;;1.77;1.23;;;;;;;13.47;100.00;102024.19;5186906;28;20030;-72
2023/09/04 00:02:51;;;;;;;2.63;1.38;;;;;;;13.57;100.00;102025.66;5186847;28;20781;-71
2023/09/04 00:05:22;;;;;;;2.50;1.20;;;;;;;13.52;100.00;102026.66;5187609;28;20053;-72
2023/09/04 00:07:52;;;;;;;2.25;1.10;;;;;;;13.58;100.00;102022.13;5186564;28;20037;-72
2023/09/04 00:10:22;;;;;;;2.47;1.20;;;;;;;13.58;100.00;102016.88;5185839;28;20083;-71
2023/09/04 00:12:53;;;;;;;2.50;1.15;;;;;;;13.57;100.00;102019.56;5186773;28;20032;-71
2023/09/04 00:15:23;;;;;;;2.08;1.20;;;;;;;13.30;100.00;102014.97;5187139;28;20508;-72
2023/09/04 00:17:53;;;;;;;2.92;1.40;;;;;;;13.26;100.00;102015.94;5186646;28;20117;-71
2023/09/04 00:20:24;;;;;;;2.05;1.10;;;;;;;13.37;100.00;102016.56;5184646;28;20062;-72
2023/09/04 00:22:55;;;;;;;2.50;1.35;;;;;;;13.21;100.00;102015.19;5184931;28;20503;-72
2023/09/04 00:25:26;;;;;;;1.58;1.10;;;;;;;13.30;100.00;102009.72;5187429;28;20483;-72
2023/09/04 00:27:57;;;;;;;2.53;1.00;;;;;;;13.28;100.00;102011.50;5179673;28;20080;-72
2023/09/04 00:30:27;;;;;;;2.15;1.30;;;;;;;13.25;100.00;102022.09;5185481;28;20029;-72
2023/09/04 00:32:57;;;;;;;2.55;1.42;;;;;;;13.08;100.00;102022.47;5184853;28;20025;-71
2023/09/04 00:35:27;;;;;;;2.22;1.17;;;;;;;12.97;100.00;102018.34;5188667;28;20502;-72
2023/09/04 00:37:58;;;;;;;1.73;1.00;;;;;;;13.06;100.00;102016.38;5186058;28;20113;-71
2023/09/04 00:40:28;;;;;;;4.50;1.40;;;;;;;13.28;100.00;102016.75;5188033;28;20104;-72
2023/09/04 00:42:58;;;;;;;2.10;1.30;;;;;;;13.08;100.00;102011.13;5186187;28;20021;-71
2023/09/04 00:45:29;;;;;;;1.73;1.23;;;;;;;12.88;100.00;102015.91;5188305;28;20535;-71
2023/09/04 00:48:00;;;;;;;2.00;1.20;;;;;;;13.14;100.00;102019.72;5184317;28;20038;-71
2023/09/04 00:50:30;;;;;;;1.77;1.20;;;;;;;12.95;100.00;102019.31;5188772;28;20022;-72
2023/09/04 00:53:03;;;;;;;2.25;1.27;;;;;;;12.78;100.00;102019.63;5185192;28;20038;-71
2023/09/04 00:55:34;;;;;;;2.00;1.10;;;;;;;12.70;100.00;102012.81;5189377;28;20049;-72
2023/09/04 00:58:04;;;;;;;2.17;1.15;;;;;;;12.68;100.00;102010.25;5183196;28;20673;-71
2023/09/04 01:00:35;;;;;;;2.72;1.48;;;;;;;12.64;100.00;102011.19;5189764;28;20100;-72
2023/09/04 01:03:06;;;;;;;1.30;1.10;;;;;;;12.68;100.00;102009.38;5186509;28;20026;-72
2023/09/04 01:05:36;;;;;;;2.08;1.27;;;;;;;12.77;100.00;102006.56;5188924;28;20033;-72
2023/09/04 01:08:07;;;;;;;4.50;1.50;;;;;;;12.85;100.00;102015.97;5186022;28;20030;-72
2023/09/04 01:11:04;;;;;;;2.53;1.40;;;;;;;12.59;100.00;102014.78;5189603;28;20112;-72
2023/09/04 01:13:50;;;;;;;4.72;1.63;;;;;;;12.56;100.00;102013.13;5185028;28;20025;-72
2023/09/04 01:16:21;;;;;;;;;;;;;;;12.48;100.00;102014.16;5187371;28;20026;-72
2023/09/04 01:18:51;;;;;;;2.97;1.38;;;;;;;12.41;100.00;102018.66;5181553;28;20394;-71
2023/09/04 01:21:22;;;;;;;2.45;1.30;;;;;;;12.57;100.00;102020.09;5187678;28;20057;-72
2023/09/04 01:23:52;;;;;;;7.18;1.60;;;;;;;12.45;100.00;102009.84;5185808;28;20034;-71
2023/09/04 01:26:35;;;;;;;3.47;1.77;;;;;;;12.45;100.00;102009.00;5185357;28;20041;-72
2023/09/04 01:29:26;;;;;;;5.38;1.35;;;;;;;12.40;100.00;102011.69;5185142;28;20030;-72
2023/09/04 01:32:06;;;;;;;3.65;1.30;;;;;;;12.49;100.00;102006.25;5190463;28;20117;-71
2023/09/04 01:34:43;;;;;;;2.53;1.52;;;;;;;12.54;100.00;101999.19;5187918;28;20391;-71
2023/09/04 01:37:15;;;;;;;2.60;1.52;;;;;;;12.42;100.00;102003.78;5190137;28;20265;-71
2023/09/04 01:39:46;;;;;;;3.95;1.40;;;;;;;12.33;100.00;102004.81;5191612;28;20026;-72
2023/09/04 01:42:16;;;;;;;3.03;1.52;;;;;;;12.41;100.00;102002.94;5186436;28;20187;-72
2023/09/04 01:44:46;;;;;;;2.00;1.20;;;;;;;12.42;100.00;101999.41;5185734;28;20571;-72
2023/09/04 01:47:17;;;;;;;2.50;1.50;;;;;;;12.37;100.00;101990.78;5176989;28;20029;-72
2023/09/04 01:49:49;;;;;;;3.38;1.40;;;;;;;12.28;100.00;102001.44;5186476;28;20112;-71
2023/09/04 01:52:19;;;;;;;4.15;1.70;;;;;;;12.39;100.00;101999.47;5181053;28;20028;-72
2023/09/04 01:54:49;;;;;;;4.07;1.80;;;;;;;12.35;100.00;101995.22;5181111;28;20038;-71
2023/09/04 01:57:19;;;;;;;3.05;1.63;;;;;;;12.32;100.00;101990.00;5181169;28;20265;-72
2023/09/04 01:59:50;;;;;;;3.25;1.95;;;;;;;12.29;100.00;101994.47;5186732;28;20030;-71
2023/09/04 02:02:20;;;;;;;4.43;1.65;;;;;;;12.22;100.00;101991.09;5181149;28;20025;-72
2023/09/04 02:04:50;;;;;;;5.10;1.90;;;;;;;12.25;100.00;102000.63;5185182;28;20056;-71
2023/09/04 02:07:20;;;;;;;3.42;1.80;;;;;;;12.36;100.00;102004.78;5185010;28;20106;-72
2023/09/04 02:09:51;;;;;;;3.25;1.95;;;;;;;12.26;100.00;101998.00;5178130;28;20046;-72
2023/09/04 02:12:21;;;;;;;2.90;1.92;;;;;;;12.32;100.00;101995.25;5185779;28;20561;-71
2023/09/04 02:14:52;;;;;;;2.38;1.70;;;;;;;12.33;100.00;101999.59;5185991;28;20261;-72
2023/09/04 02:17:22;;;;;;;3.67;2.08;;;;;;;12.32;100.00;101995.25;5184688;28;20064;-72
2023/09/04 02:19:52;;;;;;;3.78;1.70;;;;;;;12.42;100.00;101994.16;5176420;28;20041;-71
2023/09/04 02:22:23;;;;;;;2.57;1.70;;;;;;;12.43;100.00;101985.41;5185807;28;20022;-72
2023/09/04 02:24:53;;;;;;;3.22;1.95;;;;;;;12.35;100.00;101984.72;5183987;28;20272;-71
2023/09/04 02:27:23;;;;;;;3.92;2.00;;;;;;;12.25;100.00;101983.16;5177434;28;20096;-72
2023/09/04 02:29:53;;;;;;;3.35;1.60;;;;;;;12.24;100.00;101983.19;5181227;28;20030;-71
2023/09/04 02:32:24;;;;;;;6.80;2.00;;;;;;;12.16;100.00;101980.69;5181551;28;20175;-72
2023/09/04 02:34:54;;;;;;;2.90;1.90;;;;;;;12.17;100.00;101979.84;5185606;28;20018;-71
2023/09/04 02:37:24;;;;;;;3.08;1.95;;;;;;;12.26;100.00;101992.75;5182173;28;20025;-72
2023/09/04 02:39:55;;;;;;;4.78;1.90;;;;;;;12.36;100.00;101996.94;5176400;28;20124;-71
2023/09/04 02:42:28;;;;;;;4.18;1.92;;;;;;;12.25;100.00;101991.03;5185535;28;20033;-72
2023/09/04 02:44:59;;;;;;;4.50;1.95;;;;;;;12.35;100.00;101987.34;5185874;28;20030;-72
2023/09/04 02:47:29;;;;;;;2.87;1.97;;;;;;;12.37;100.00;101987.28;5183401;28;20045;-72
2023/09/04 02:49:59;;;;;;;4.88;1.90;;;;;;;12.24;100.00;101985.81;5181805;28;20801;-71
2023/09/04 02:52:30;;;;;;;3.45;1.92;;;;;;;12.32;100.00;101979.50;5186155;28;20034;-72
2023/09/04 02:55:00;;;;;;;4.22;1.90;;;;;;;12.26;100.00;101970.94;5182730;28;20024;-72
2023/09/04 02:57:31;;;;;;;3.00;1.90;;;;;;;12.19;100.00;101975.44;5183062;28;20517;-72
2023/09/04 03:00:06;;;;;;;3.28;1.90;;;;;;;11.99;100.00;101980.16;5187560;28;20383;-72
2023/09/04 03:02:36;;;;;;;3.65;1.92;;;;;;;12.03;100.00;101974.00;5182028;28;20049;-71
2023/09/04 03:05:07;;;;;;;2.65;1.70;;;;;;;12.17;100.00;101974.59;5183927;28;20516;-72
2023/09/04 03:07:38;;;;;;;3.33;2.03;;;;;;;12.10;100.00;101972.97;5181931;28;20038;-72
2023/09/04 03:10:08;;;;;;;4.00;1.98;;;;;;;12.21;100.00;101972.75;5183079;28;20083;-72
2023/09/04 03:12:38;;;;;;;3.95;2.03;;;;;;;12.26;100.00;101971.78;5186016;28;20029;-72
2023/09/04 03:15:09;;;;;;;3.95;2.00;;;;;;;12.25;100.00;101970.06;5180777;28;20036;-71
2023/09/04 03:17:39;;;;;;;2.60;1.75;;;;;;;12.07;100.00;101977.41;5185139;28;20121;-72
2023/09/04 03:20:11;;;;;;;3.58;1.98;;;;;;;12.12;100.00;101971.19;5187708;28;20018;-72
2023/09/04 03:22:41;;;;;;;3.00;1.98;;;;;;;12.16;100.00;101964.97;5182556;28;20464;-71
2023/09/04 03:25:12;;;;;;;2.78;1.65;;;;;;;12.25;100.00;101970.06;5187550;28;20065;-71
2023/09/04 03:27:42;;;;;;;4.43;2.05;;;;;;;12.27;100.00;101968.25;5183380;28;20025;-71
2023/09/04 03:30:13;;;;;;;3.53;1.60;;;;;;;12.19;100.00;101964.94;5186316;28;20029;-72
2023/09/04 03:32:43;;;;;;;3.33;1.88;;;;;;;12.32;100.00;101958.53;5179510;28;20026;-72
2023/09/04 03:35:16;;;;;;;3.13;1.80;;;;;;;12.19;100.00;101964.06;5184302;28;20030;-71
2023/09/04 03:37:47;;;;;;;2.35;1.60;;;;;;;12.22;100.00;101964.00;5185799;28;20022;-71
2023/09/04 03:40:18;;;;;;;3.08;1.90;;;;;;;12.19;100.00;101962.31;5183341;28;20026;-72
2023/09/04 03:42:49;;;;;;;2.10;1.45;;;;;;;11.91;100.00;101958.50;5185618;28;20025;-71
2023/09/04 03:45:19;;;;;;;1.85;1.30;;;;;;;11.87;100.00;101967.31;5183557;28;20025;-72
2023/09/04 03:47:50;;;;;;;1.65;1.13;;;;;;;11.82;100.00;101969.13;5186661;28;20034;-71
2023/09/04 03:50:21;;;;;;;3.03;1.70;;;;;;;11.88;100.00;101966.44;5187207;28;20484;-72
2023/09/04 03:52:51;;;;;;;2.47;1.50;;;;;;;11.97;100.00;101961.00;5184061;28;20125;-71
2023/09/04 03:55:22;;;;;;;2.22;1.33;;;;;;;11.83;100.00;101963.03;5186409;28;20113;-71
2023/09/04 03:57:52;;;;;;;2.38;1.50;;;;;;;11.76;100.00;101964.03;5180969;28;20818;-71
2023/09/04 04:00:23;;;;;;;2.08;1.25;;;;;;;11.86;100.00;101957.72;5182910;28;20415;-72
2023/09/04 04:02:53;;;;;;;2.65;1.30;;;;;;;11.75;100.00;101957.06;5182671;28;20110;-72
2023/09/04 04:05:24;;;;;;;3.67;1.55;;;;;;;11.80;100.00;101960.44;5186387;28;20041;-72
2023/09/04 04:07:54;;;;;;;2.70;1.50;;;;;;;11.73;100.00;101969.31;5188069;28;20025;-71
2023/09/04 04:10:24;;;;;;;2.35;1.63;;;;;;;11.89;100.00;101955.06;5186417;28;20021;-71
2023/09/04 04:12:55;;;;;;;2.40;1.38;;;;;;;12.05;100.00;101964.34;5184811;28;20162;-71
2023/09/04 04:15:25;;;;;;;2.65;1.42;;;;;;;12.08;100.00;101966.03;5178464;28;20442;-71
2023/09/04 04:17:55;;;;;;;3.00;1.45;;;;;;;11.92;100.00;101969.84;5181799;28;20491;-71
2023/09/04 04:20:25;;;;;;;2.72;1.33;;;;;;;12.03;100.00;101960.00;5187542;28;20032;-72
2023/09/04 04:22:56;;;;;;;3.55;1.40;;;;;;;11.79;100.00;101963.97;5186641;28;20021;-71
2023/09/04 04:25:26;;;;;;;1.83;1.30;;;;;;;11.88;100.00;101969.03;5186508;28;20025;-71
2023/09/04 04:27:56;;;;;;;2.53;1.55;;;;;;;11.85;100.00;101958.63;5186346;28;20754;-71
2023/09/04 04:30:27;;;;;;;2.45;1.30;;;;;;;11.83;100.00;101967.41;5188065;28;20177;-72
2023/09/04 04:32:57;;;;;;;2.50;1.15;;;;;;;11.90;100.00;101964.63;5188929;28;20021;-71
2023/09/04 04:35:27;;;;;;;2.28;1.30;;;;;;;11.76;100.00;101969.25;5188757;28;20029;-71
2023/09/04 04:37:57;;;;;;;2.53;1.40;;;;;;;11.82;100.00;101965.66;5185012;28;20361;-71
2023/09/04 04:40:29;;;;;;;1.75;1.40;;;;;;;11.70;100.00;101974.63;5186153;28;20017;-71
2023/09/04 04:42:59;;;;;;;1.77;1.30;;;;;;;11.70;100.00;101979.84;5187281;28;20025;-71
2023/09/04 04:45:29;;;;;;;4.05;1.38;;;;;;;11.73;100.00;101971.94;5186711;28;20072;-71
2023/09/04 04:48:01;;;;;;;2.88;1.60;;;;;;;11.61;100.00;101973.91;5179178;28;20104;-72
2023/09/04 04:50:31;;;;;;;3.28;1.63;;;;;;;11.50;100.00;101981.94;5181693;28;20145;-71
2023/09/04 04:53:03;;;;;;;3.03;1.70;;;;;;;11.65;100.00;101986.91;5177111;28;20068;-72
2023/09/04 04:55:33;;;;;;;3.88;1.70;;;;;;;11.52;100.00;101989.75;5182400;28;20057;-71
2023/09/04 04:58:03;;;;;;;2.65;1.60;;;;;;;11.64;100.00;101989.56;5177523;28;20099;-71
2023/09/04 05:00:33;;;;;;;2.75;1.52;;;;;;;11.72;100.00;101988.56;5186148;28;20037;-71
2023/09/04 05:03:04;;;;;;;1.80;1.42;;;;;;;11.85;100.00;101990.06;5177347;28;20353;-71
2023/09/04 05:05:35;;;;;;;5.95;1.95;;;;;;;11.95;100.00;101983.75;5183557;28;20055;-71
2023/09/04 05:08:05;;;;;;;2.63;1.60;;;;;;;11.85;100.00;101982.19;5177691;28;20108;-71
2023/09/04 05:10:35;;;;;;;3.78;1.65;;;;;;;11.78;100.00;101993.66;5180572;28;20028;-71
2023/09/04 05:13:05;;;;;;;3.50;1.52;;;;;;;12.17;100.00;102000.81;5185186;28;20031;-71
2023/09/04 05:15:36;;;;;;;2.58;1.58;;;;;;;12.14;100.00;101998.22;5186323;28;20384;-72
2023/09/04 05:18:06;;;;;;;2.67;1.38;;;;;;;11.94;100.00;101989.03;5183182;28;20017;-71
2023/09/04 05:20:37;;;;;;;2.30;1.40;;;;;;;12.01;100.00;101988.00;5184646;28;20035;-71
2023/09/04 05:23:08;;;;;;;1.90;1.40;;;;;;;12.20;100.00;101992.88;5179578;28;20025;-71
2023/09/04 05:25:47;;;;;;;3.00;1.50;;;;;;;12.47;100.00;101999.31;5179079;28;20471;-71
2023/09/04 05:28:17;;;;;;;3.33;1.40;;;;;;;12.60;100.00;101993.78;5180930;28;20121;-71
2023/09/04 05:30:48;;;;;;;2.90;1.48;;;;;;;12.66;100.00;101998.91;5181046;28;20042;-71
2023/09/04 05:33:18;;;;;;;1.90;1.40;;;;;;;12.51;100.00;101994.00;5185514;28;20088;-71
2023/09/04 05:35:56;;;;;;;3.75;1.45;;;;;;;12.40;100.00;102000.31;5183081;28;20018;-70
2023/09/04 05:38:27;;;;;;;3.13;1.45;;;;;;;12.30;100.00;101997.03;5187038;28;20060;-70
2023/09/04 05:40:58;;;;;;;2.65;1.52;;;;;;;12.68;100.00;102006.75;5188758;28;20056;-71
2023/09/04 05:43:28;;;;;;;1.77;1.40;;;;;;;12.60;100.00;101998.19;5190325;28;20163;-71
2023/09/04 05:45:58;;;;;;;3.83;1.67;;;;;;;12.72;100.00;101998.78;5189535;28;20104;-71
2023/09/04 05:48:31;;;;;;;3.58;1.85;;;;;;;12.88;100.00;102000.19;5188101;28;20136;-71
2023/09/04 05:51:02;;;;;;;3.97;1.80;;;;;;;12.89;100.00;101996.66;5184326;28;20036;-71
2023/09/04 05:53:32;;;;;;;3.45;2.17;;;;;;;13.07;100.00;101993.63;5190732;28;20018;-71
2023/09/04 05:56:03;;;;;;;3.63;2.03;;;;;;;13.02;100.00;102003.34;5189369;28;20025;-71
2023/09/04 05:58:34;;;;;;;9.45;3.05;;;;;;;13.22;100.00;101995.91;5189778;28;20025;-71
2023/09/04 06:01:04;;;;;;;4.55;2.53;;;;;;;13.22;100.00;101998.53;5185663;28;20029;-71
2023/09/04 06:03:34;;;;;;;6.18;2.88;;;;;;;13.33;100.00;101994.75;5190932;28;20064;-71
2023/09/04 06:06:06;;;;;;;4.82;2.50;;;;;;;13.54;100.00;102003.88;5189110;28;20033;-71
2023/09/04 06:08:37;;;;;;;4.20;3.05;;;;;;;13.57;100.00;101999.38;5188858;28;20105;-71
2023/09/04 06:11:07;;;;;;;3.55;2.60;;;;;;;13.66;100.00;102004.44;5189763;28;21100;-71
2023/09/04 06:13:37;;;;;;;4.60;2.65;;;;;;;13.65;100.00;102009.72;5192121;28;20496;-71
2023/09/04 06:16:08;;;;;;;3.90;2.85;;;;;;;13.78;100.00;102009.34;5193456;28;20121;-71
2023/09/04 06:18:38;;;;;;;6.97;3.20;;;;;;;13.80;100.00;101998.81;5194239;28;20387;-71
2023/09/04 06:21:08;;;;;;;7.28;2.63;;;;;;;14.01;100.00;102000.88;5193649;28;20017;-71
2023/09/04 06:23:39;;;;;;;5.38;2.45;;;;;;;14.13;100.00;102003.16;5193239;28;20065;-72
2023/09/04 06:26:09;;;;;;;6.72;2.97;;;;;;;14.20;100.00;101994.22;5194359;28;20056;-71
2023/09/04 06:28:39;;;;;;;5.15;2.55;;;;;;;14.46;100.00;102005.75;5195203;28;20391;-71
2023/09/04 06:31:10;;;;;;;14.38;3.22;;;;;;;14.48;100.00;102001.31;5194399;28;20021;-72
2023/09/04 06:33:40;;;;;;;5.93;3.00;;;;;;;14.49;100.00;102010.06;5195756;28;20108;-71
2023/09/04 06:36:10;;;;;;;4.65;3.05;;;;;;;14.79;100.00;101999.50;5191668;28;20120;-70
2023/09/04 06:38:41;;;;;;;6.05;3.15;;;;;;;14.87;100.00;102002.78;5193135;28;20587;-72
2023/09/04 06:41:11;;;;;;;5.00;3.03;;;;;;;15.10;100.00;102005.56;5193456;28;20033;-72
2023/09/04 06:43:41;;;;;;;4.40;2.78;;;;;;;15.24;100.00;102004.22;5193477;28;20116;-71
2023/09/04 06:46:12;;;;;;;4.75;2.63;;;;;;;15.26;100.00;101994.50;5194719;28;20064;-72
2023/09/04 06:48:42;;;;;;;4.72;2.80;;;;;;;15.66;100.00;101987.03;5194354;28;20025;-71
2023/09/04 06:51:12;;;;;;;3.50;2.17;;;;;;;17.68;100.00;101983.66;5194574;28;20036;-72
2023/09/04 06:53:43;;;;;;;3.95;2.30;;;;;;;17.78;100.00;101992.91;5194537;28;20028;-72
2023/09/04 06:56:13;;;;;;;7.20;1.90;;;;;;;17.88;98.91;101988.94;5194550;28;20029;-72
2023/09/04 06:58:43;;;;;;;5.38;1.92;;;;;;;17.80;100.00;101999.00;5195732;28;20087;-72
2023/09/04 07:01:15;;;;;;;2.80;1.75;;;;;;;19.14;97.00;101990.09;5194288;28;20120;-72
2023/09/04 07:03:45;;;;;;;3.40;1.88;;;;;;;21.47;83.92;101984.66;5194257;28;20048;-73
2023/09/04 07:06:15;;;;;;;2.92;1.52;;;;;;;23.95;75.39;101975.81;5188628;28;20034;-73
2023/09/04 07:08:46;;;;;;;2.97;1.40;;;;;;;24.61;71.09;101976.47;5187602;28;20553;-73
2023/09/04 07:11:16;;;;;;;2.20;1.23;;;;;;;25.61;67.98;101978.75;5188427;28;20360;-72
2023/09/04 07:13:47;;;;;;;2.27;1.20;;;;;;;27.12;63.89;101977.41;5189644;28;20112;-72
2023/09/04 07:16:17;;;;;;;2.43;1.30;;;;;;;27.09;61.71;101975.78;5188461;28;20269;-73
2023/09/04 07:18:47;;;;;;;2.72;1.33;;;;;;;25.91;66.71;101984.50;5188621;28;20276;-71
2023/09/04 07:21:18;;;;;;;2.20;1.13;;;;;;;29.03;59.98;101968.63;5190060;28;20049;-73
2023/09/04 07:23:48;;;;;;;2.15;1.23;;;;;;;28.74;60.42;101981.13;5187505;28;20195;-72
2023/09/04 07:26:18;;;;;;;2.60;1.20;;;;;;;29.18;59.99;101974.47;5186600;28;20053;-73
2023/09/04 07:28:49;;;;;;;2.23;1.30;;;;;;;28.84;58.46;101975.75;5183957;28;20292;-72
2023/09/04 07:31:20;;;;;;;2.50;1.38;;;;;;;29.19;59.34;101976.16;5187288;28;20356;-72
2023/09/04 07:33:50;;;;;;;1.67;1.20;;;;;;;27.57;61.79;101974.44;5187050;28;20025;-73
2023/09/04 07:36:21;;;;;;;2.60;1.23;;;;;;;26.60;65.15;101981.69;5191426;28;20039;-73
2023/09/04 07:38:51;;;;;;;2.00;1.33;;;;;;;29.27;60.27;101976.34;5185424;28;20029;-73
2023/09/04 07:41:21;;;;;;;3.60;1.20;;;;;;;28.31;60.79;101966.22;5186220;28;20026;-73
2023/09/04 07:43:52;;;;;;;2.70;1.20;;;;;;;28.64;61.51;101965.09;5185323;28;20299;-73
2023/09/04 07:46:22;;;;;;;2.10;1.20;;;;;;;28.32;60.81;101977.84;5187944;28;20307;-73
2023/09/04 07:48:52;;;;;;;2.13;1.30;;;;;;;28.57;61.27;101972.00;5182243;28;20103;-73
2023/09/04 07:51:22;;;;;;;2.50;1.20;;;;;;;29.26;62.21;101978.16;5186970;28;20272;-73
2023/09/04 07:53:53;;;;;;;2.22;1.27;;;;;;;29.38;61.75;101982.44;5183370;28;20953;-73
2023/09/04 07:56:23;;;;;;;3.53;1.60;;;;;;;30.58;59.28;101980.91;5186868;28;20033;-73
2023/09/04 07:58:54;;;;;;;4.00;1.48;;;;;;;30.26;57.36;101980.44;5183487;28;20284;-73
2023/09/04 08:01:24;;;;;;;3.25;1.30;;;;;;;29.42;58.64;101991.09;5190873;28;20690;-73
2023/09/04 08:03:54;;;;;;;5.23;1.33;;;;;;;28.21;59.66;101991.31;5188822;28;20026;-72
2023/09/04 08:06:24;;;;;;;1.50;1.20;;;;;;;27.98;60.29;101989.78;5204385;28;20324;-73
2023/09/04 08:08:55;;;;;;;2.67;1.40;;;;;;;28.30;58.46;101982.47;5179332;28;20770;-73
2023/09/04 08:11:26;;;;;;;2.58;1.38;;;;;;;29.04;58.21;101977.59;5188347;28;20276;-73
2023/09/04 08:13:56;;;;;;;1.97;1.20;;;;;;;28.14;60.68;101985.63;5187004;28;20112;-72
2023/09/04 08:16:27;;;;;;;1.73;1.08;;;;;;;29.72;57.42;101975.66;5186547;28;20654;-72
2023/09/04 08:18:57;;;;;;;1.88;0.90;;;;;;;29.67;57.24;101983.34;5184930;28;20556;-72
2023/09/04 08:21:27;;;;;;;2.67;1.00;;;;;;;28.83;57.55;101974.06;5189748;28;20297;-73
2023/09/04 08:23:57;;;;;;;1.58;1.10;;;;;;;29.42;56.17;101972.22;5186977;28;20277;-71
2023/09/04 08:26:29;;;;;;;3.40;1.10;;;;;;;28.99;56.71;101969.03;5191156;28;20029;-73
2023/09/04 08:28:59;;;;;;;4.13;1.00;;;;;;;29.36;55.92;101967.38;5184208;28;20295;-72
2023/09/04 08:31:30;;;;;;;1.77;0.90;;;;;;;29.67;57.63;101972.56;5191375;28;20022;-72
2023/09/04 08:34:02;;;;;;;2.83;1.00;;;;;;;29.05;57.38;101969.34;5185004;28;20510;-72
2023/09/04 08:36:32;;;;;;;1.80;1.00;;;;;;;29.41;56.96;101971.38;5185422;28;20287;-73
2023/09/04 08:39:02;;;;;;;3.03;1.13;;;;;;;28.49;58.65;101966.44;5179025;28;20030;-73
2023/09/04 08:41:34;;;;;;;3.83;1.40;;;;;;;29.54;55.21;101976.53;5187298;28;20341;-73
2023/09/04 08:44:05;;;;;;;2.17;1.10;;;;;;;30.31;55.71;101976.31;5183932;28;20030;-73
2023/09/04 08:46:37;;;;;;;3.72;1.10;;;;;;;30.78;54.45;101977.13;5191331;28;20534;-72
2023/09/04 08:49:07;;;;;;;3.53;1.42;;;;;;;30.01;54.97;101967.53;5187764;28;20125;-73
2023/09/04 08:51:38;;;;;;;3.72;1.40;;;;;;;28.12;58.14;101976.00;5189315;28;20522;-73
2023/09/04 08:54:08;;;;;;;2.40;0.80;;;;;;;30.52;55.43;101970.66;5190248;28;20490;-72
2023/09/04 08:56:39;;;;;;;2.28;1.17;;;;;;;29.58;55.75;101968.00;5190143;28;20025;-73
2023/09/04 08:59:10;;;;;;;1.63;0.80;;;;;;;29.76;54.66;101968.16;5185643;28;20029;-73
2023/09/04 09:01:42;;;;;;;2.40;1.25;;;;;;;29.93;56.07;101967.41;5188902;28;20057;-73
2023/09/04 09:04:12;;;;;;;2.42;1.23;;;;;;;30.33;54.97;101970.75;5185261;28;20595;-73
2023/09/04 09:06:44;;;;;;;2.38;1.00;;;;;;;29.62;54.66;101968.56;5190951;28;20025;-72
2023/09/04 09:09:15;;;;;;;2.80;1.00;;;;;;;30.25;54.46;101954.44;5187114;28;20030;-73
2023/09/04 09:11:46;;;;;;;2.33;0.90;;;;;;;29.71;54.92;101957.78;5189985;28;20026;-73
2023/09/04 09:14:16;;;;;;;2.15;1.00;;;;;;;28.73;56.85;101951.66;5189195;28;20035;-72
2023/09/04 09:16:46;;;;;;;2.50;1.20;;;;;;;29.81;55.64;101953.25;5184581;28;20506;-73
2023/09/04 09:19:20;;;;;;;1.10;0.90;;;;;;;28.80;58.20;101950.97;5188481;28;20030;-73
2023/09/04 09:21:52;;;;;;;2.78;1.13;;;;;;;29.93;55.25;101949.38;5188521;28;20029;-72
2023/09/04 09:24:22;;;;;;;2.30;1.00;;;;;;;29.88;54.82;101946.25;5181864;28;20493;-73
2023/09/04 09:26:53;;;;;;;2.78;1.10;;;;;;;27.96;58.31;101952.25;5186456;28;20117;-72
2023/09/04 09:29:24;;;;;;;2.42;1.15;;;;;;;26.51;62.84;101942.22;5187400;28;20041;-72
2023/09/04 09:31:55;;;;;;;2.63;1.10;;;;;;;26.37;61.76;101950.47;5186510;28;20087;-72
2023/09/04 09:34:32;;;;;;;2.60;1.10;;;;;;;26.09;63.41;101953.59;5189681;28;20108;-72
2023/09/04 09:37:02;;;;;;;2.88;1.20;;;;;;;25.57;64.43;101951.38;5186815;28;20105;-72
2023/09/04 09:39:34;;;;;;;1.98;1.20;;;;;;;25.66;64.44;101942.63;5189337;28;20116;-72
2023/09/04 09:42:04;;;;;;;3.40;1.40;;;;;;;24.65;67.07;101937.81;5179610;28;20053;-71
2023/09/04 09:44:34;;;;;;;4.13;1.15;;;;;;;25.01;67.99;101927.09;5189173;28;20079;-72
2023/09/04 09:47:12;;;;;;;2.27;1.10;;;;;;;24.95;69.04;101925.72;5183004;28;20033;-72
2023/09/04 09:49:43;;;;;;;2.10;1.23;;;;;;;24.86;67.81;101926.44;5190749;28;20295;-72
2023/09/04 09:52:13;;;;;;;2.38;1.30;;;;;;;24.79;68.28;101916.28;5189206;28;20112;-72
2023/09/04 09:54:46;;;;;;;1.90;1.05;;;;;;;24.28;68.40;101920.00;5193055;28;20502;-72
2023/09/04 09:57:18;;;;;;;4.60;1.10;;;;;;;24.02;69.60;101920.13;5190650;28;20026;-72
2023/09/04 09:59:50;;;;;;;2.25;1.23;;;;;;;24.19;68.94;101919.81;5187069;28;20021;-71
2023/09/04 10:02:23;;;;;;;4.45;1.40;;;;;;;24.25;67.85;101917.53;5192232;28;20021;-71
2023/09/04 10:04:53;;;;;;;2.13;1.27;;;;;;;24.36;69.26;101912.28;5189622;28;20056;-71
2023/09/04 10:07:27;;;;;;;3.25;1.48;;;;;;;24.57;68.23;101908.09;5191769;28;20056;-73
2023/09/04 10:10:03;;;;;;;3.10;1.23;;;;;;;24.42;69.07;101902.97;5191908;28;20121;-73
2023/09/04 10:12:41;;;;;;;2.97;1.10;;;;;;;24.51;68.99;101911.19;5194464;28;20034;-72
2023/09/04 10:15:13;;;;;;;2.05;1.20;;;;;;;23.98;68.87;101918.59;5188368;28;20026;-72
2023/09/04 10:17:50;;;;;;;2.50;1.13;;;;;;;24.28;69.38;101905.78;5192444;28;20484;-73
2023/09/04 10:20:22;;;;;;;4.47;1.38;;;;;;;24.21;68.36;101899.16;5191168;28;20391;-72
2023/09/04 10:23:06;;;;;;;3.78;1.10;;;;;;;24.37;70.91;101902.47;5190410;28;20044;-72
2023/09/04 10:25:42;;;;;;;3.22;1.40;;;;;;;24.02;70.58;101896.91;5186523;28;20029;-73
2023/09/04 10:28:21;;;;;;;3.10;1.35;;;;;;;24.24;70.75;101901.63;5189400;28;20108;-72
2023/09/04 10:30:55;;;;;;;3.05;1.20;;;;;;;24.45;71.04;101895.59;5191354;28;20097;-72
2023/09/04 10:33:26;;;;;;;3.08;1.20;;;;;;;24.41;69.64;101903.94;5184109;28;20029;-73
2023/09/04 10:35:58;;;;;;;1.75;1.17;;;;;;;24.36;69.13;101898.06;5184556;28;20087;-73
2023/09/04 10:38:28;;;;;;;3.45;1.10;;;;;;;24.42;70.14;101889.59;5191043;28;20017;-72
2023/09/04 10:41:00;;;;;;;2.65;1.30;;;;;;;23.81;69.40;101889.50;5188755;28;20036;-71
2023/09/04 10:43:44;;;;;;;2.10;1.30;;;;;;;24.05;67.96;101886.00;5188836;28;20029;-72
2023/09/04 10:46:15;;;;;;;1.85;1.13;;;;;;;23.93;70.56;101883.34;5190662;28;20056;-72
2023/09/04 10:48:48;;;;;;;2.75;1.20;;;;;;;23.87;68.96;101887.31;5190184;28;20090;-73
2023/09/04 10:51:37;;;;;;;3.55;1.40;;;;;;;23.70;69.96;101874.22;5187680;28;20018;-72
2023/09/04 10:54:10;;;;;;;2.15;1.23;;;;;;;23.92;69.38;101873.63;5187802;28;20815;-72
2023/09/04 10:56:57;;;;;;;3.63;1.25;;;;;;;24.03;70.54;101863.91;5189723;28;20026;-73
2023/09/04 10:59:28;;;;;;;1.67;1.17;;;;;;;24.05;69.63;101867.31;5191784;28;20104;-73
2023/09/04 11:02:27;;;;;;;2.70;1.10;;;;;;;24.05;68.20;101867.31;5185854;28;20117;-71
2023/09/04 11:04:59;;;;;;;3.22;1.00;;;;;;;23.85;67.57;101872.38;5183770;28;20039;-72
2023/09/04 11:07:32;;;;;;;2.35;0.90;;;;;;;23.90;67.15;101860.38;5181053;28;20026;-72
2023/09/04 11:10:29;;;;;;;3.25;0.90;;;;;;;23.73;69.29;101862.50;5189151;28;20029;-72
2023/09/04 11:12:59;;;;;;;2.72;1.00;;;;;;;23.93;68.80;101861.97;5170712;28;20029;-71
2023/09/04 11:15:32;;;;;;;1.20;0.90;;;;;;;23.87;68.47;101865.94;5180013;28;20021;-73
2023/09/04 11:18:02;;;;;;;1.58;0.82;;;;;;;23.83;67.90;101869.78;5187083;28;20044;-72
2023/09/04 11:20:45;;;;;;;3.83;1.00;;;;;;;24.02;67.06;101870.19;5191829;28;20427;-72
2023/09/04 11:23:16;;;;;;;1.50;0.90;;;;;;;24.10;64.59;101867.00;5190222;28;20384;-72
2023/09/04 11:25:46;;;;;;;2.47;1.17;;;;;;;23.93;68.30;101872.66;5189147;28;20121;-72
2023/09/04 11:28:17;;;;;;;2.03;1.00;;;;;;;23.94;67.55;101871.69;5191494;28;20120;-72
2023/09/04 11:30:47;;;;;;;1.13;0.80;;;;;;;23.92;67.86;101869.16;5190260;28;20275;-71
2023/09/04 11:33:20;;;;;;;2.42;0.80;;;;;;;23.82;69.89;101878.75;5191279;28;20025;-73
2023/09/04 11:36:05;;;;;;;2.45;1.17;;;;;;;24.09;70.46;101866.16;5190495;28;20087;-72
2023/09/04 11:38:38;;;;;;;2.83;1.20;;;;;;;24.00;66.53;101866.78;5192423;28;20032;-72
2023/09/04 11:41:16;;;;;;;2.42;1.23;;;;;;;24.06;67.68;101855.66;5189777;28;20029;-72